Time;durP1;ratioP1;P1;durP2;ratioP2;P2;SDS_P1;SDS_P2;PMS_P1;PMS_P2;Temp;Humidity;BMP_temperature;BMP_pressure;BME280_temperature;BME280_humidity;BME280_pressure;Samples;Min_cycle;Max_cycle;Signal;HPM_P1;HPM_P2
2022/05/03 00:00:14;;;;;;;11.90;8.48;;;9.90;91.30;;;;;;1911762;75;21171;-57
2022/05/03 00:03:01;;;;;;;12.63;8.78;;;9.90;91.40;;;;;;1911744;75;21144;-56
2022/05/03 00:05:32;;;;;;;21.12;8.60;;;9.90;91.50;;;;;;1911893;75;21144;-57
2022/05/03 00:08:23;;;;;;;10.03;8.40;;;9.90;91.40;;;;;;1911925;75;21047;-57
2022/05/03 00:10:57;;;;;;;11.68;7.65;;;9.90;91.40;;;;;;1911783;75;21020;-57
2022/05/03 00:13:29;;;;;;;10.45;8.40;;;9.90;91.50;;;;;;1911149;75;21641;-56
2022/05/03 00:15:59;;;;;;;14.50;8.88;;;9.90;91.50;;;;;;1911885;75;21592;-56
2022/05/03 00:18:28;;;;;;;9.48;8.25;;;9.90;91.40;;;;;;1911837;75;21086;-56
2022/05/03 00:20:58;;;;;;;12.55;8.55;;;9.90;91.40;;;;;;1911654;75;21716;-56
2022/05/03 00:23:28;;;;;;;12.00;8.18;;;9.90;91.40;;;;;;1911897;75;21138;-56
2022/05/03 00:25:58;;;;;;;8.98;7.58;;;9.90;91.30;;;;;;1911853;75;21285;-56
2022/05/03 00:28:28;;;;;;;10.80;8.40;;;9.90;91.40;;;;;;1912033;75;21157;-56
2022/05/03 00:30:59;;;;;;;11.65;8.63;;;9.90;91.30;;;;;;1911903;75;21279;-57
2022/05/03 00:33:30;;;;;;;9.53;7.80;;;10.00;91.40;;;;;;1911859;74;21146;-57
2022/05/03 00:35:59;;;;;;;11.57;9.08;;;10.00;91.40;;;;;;1911895;75;21232;-56
2022/05/03 00:38:34;;;;;;;11.97;8.08;;;10.00;91.30;;;;;;1911910;75;21325;-57
2022/05/03 00:41:01;;;;;;;10.03;7.83;;;10.00;91.30;;;;;;1911201;75;21092;-56
2022/05/03 00:43:54;;;;;;;8.83;6.92;;;10.00;91.30;;;;;;1911873;75;21096;-56
2022/05/03 00:46:26;;;;;;;8.55;6.97;;;10.00;91.40;;;;;;1911906;75;21067;-57
2022/05/03 00:49:07;;;;;;;10.40;7.10;;;10.00;91.30;;;;;;1911927;75;21225;-56
2022/05/03 00:51:54;;;;;;;9.48;7.45;;;10.00;91.40;;;;;;1910831;75;21187;-56
2022/05/03 00:54:32;;;;;;;6.97;5.28;;;9.90;91.30;;;;;;1911980;75;21241;-56
2022/05/03 00:57:38;;;;;;;10.78;7.22;;;9.90;91.60;;;;;;1903717;75;21136;-56
2022/05/03 01:00:14;;;;;;;8.20;7.20;;;9.80;91.50;;;;;;1884573;76;21240;-56
2022/05/03 01:02:58;;;;;;;11.50;8.00;;;9.80;91.60;;;;;;1884378;76;21228;-56
2022/05/03 01:05:30;;;;;;;8.90;7.00;;;9.80;91.70;;;;;;1883525;76;21276;-57
2022/05/03 01:08:04;;;;;;;7.72;6.78;;;9.70;91.50;;;;;;1883692;76;21739;-56
2022/05/03 01:10:36;;;;;;;8.68;7.40;;;9.80;91.50;;;;;;1883248;76;21600;-57
2022/05/03 01:13:26;;;;;;;7.75;6.95;;;9.80;91.60;;;;;;1884477;76;21444;-56
2022/05/03 01:15:58;;;;;;;9.23;6.92;;;9.70;91.60;;;;;;1884518;76;21151;-57
2022/05/03 01:18:46;;;;;;;9.98;7.35;;;9.70;91.70;;;;;;1886437;75;21246;-56
2022/05/03 01:21:26;;;;;;;9.68;7.05;;;9.70;91.60;;;;;;1883624;75;21491;-56
2022/05/03 01:24:01;;;;;;;7.72;6.35;;;9.80;91.50;;;;;;1881878;76;21575;-56
2022/05/03 01:26:45;;;;;;;7.45;6.30;;;9.80;91.50;;;;;;1884673;76;21111;-56
2022/05/03 01:29:26;;;;;;;8.80;6.95;;;9.80;91.50;;;;;;1884507;76;21196;-57
2022/05/03 01:32:01;;;;;;;8.98;6.80;;;9.80;91.50;;;;;;1884305;76;21679;-57
2022/05/03 01:34:30;;;;;;;10.98;7.25;;;9.80;91.50;;;;;;1884446;76;21069;-56
2022/05/03 01:37:05;;;;;;;8.03;6.67;;;9.80;91.50;;;;;;1884376;76;21150;-56
2022/05/03 01:39:35;;;;;;;;;;;9.80;91.60;;;;;;1887194;75;21275;-56
2022/05/03 01:42:25;;;;;;;9.00;7.15;;;9.80;91.70;;;;;;1884285;76;20851;-56
2022/05/03 01:45:07;;;;;;;7.58;6.45;;;9.80;91.60;;;;;;1884341;76;21205;-56
2022/05/03 01:47:56;;;;;;;7.83;6.67;;;9.80;91.50;;;;;;1884431;75;21575;-56
2022/05/03 01:50:54;;;;;;;8.00;6.80;;;9.80;91.40;;;;;;1884312;76;21173;-57
2022/05/03 01:53:32;;;;;;;10.50;7.55;;;9.80;91.50;;;;;;1884457;76;21240;-56
2022/05/03 01:56:10;;;;;;;11.57;7.17;;;9.80;91.60;;;;;;1888609;75;21173;-56
2022/05/03 01:59:17;;;;;;;10.68;7.35;;;9.80;91.50;;;;;;1906216;74;21191;-56
2022/05/03 02:02:19;;;;;;;11.03;6.95;;;9.80;91.60;;;;;;1911893;74;21076;-56
2022/05/03 02:05:08;;;;;;;8.18;7.05;;;9.80;91.60;;;;;;1911777;75;21281;-57
2022/05/03 02:07:46;;;;;;;9.05;7.12;;;9.70;91.60;;;;;;1911902;75;21203;-57
2022/05/03 02:10:27;;;;;;;10.58;7.33;;;9.70;91.70;;;;;;1910399;75;21111;-56
2022/05/03 02:12:58;;;;;;;9.13;7.30;;;9.70;91.70;;;;;;1910677;75;21668;-56
2022/05/03 02:15:44;;;;;;;10.98;7.55;;;9.70;91.70;;;;;;1911860;75;21200;-57
2022/05/03 02:18:40;;;;;;;10.45;7.45;;;9.70;91.60;;;;;;1911809;75;21083;-57
2022/05/03 02:21:18;;;;;;;11.70;8.10;;;9.70;91.80;;;;;;1910091;75;21256;-57
2022/05/03 02:24:05;;;;;;;9.83;7.70;;;9.70;91.60;;;;;;1911848;75;21232;-57
2022/05/03 02:26:46;;;;;;;8.65;6.80;;;9.80;91.50;;;;;;1911336;75;21123;-57
2022/05/03 02:29:18;;;;;;;10.03;7.35;;;9.80;91.70;;;;;;1911906;75;21144;-56
2022/05/03 02:31:51;;;;;;;10.35;7.53;;;9.80;91.60;;;;;;1911956;75;21543;-56
2022/05/03 02:34:40;;;;;;;10.00;7.12;;;9.80;91.70;;;;;;1911858;75;21160;-57
2022/05/03 02:37:20;;;;;;;11.10;8.23;;;9.80;91.70;;;;;;1912144;75;21099;-57
2022/05/03 02:40:01;;;;;;;9.30;7.70;;;9.90;91.70;;;;;;1911868;75;21194;-56
2022/05/03 02:42:32;;;;;;;10.28;7.50;;;9.90;91.70;;;;;;1911809;75;21161;-57
2022/05/03 02:45:02;;;;;;;10.15;7.40;;;9.90;91.60;;;;;;1911887;75;21035;-56
2022/05/03 02:47:46;;;;;;;8.43;7.53;;;9.90;91.60;;;;;;1911920;75;21099;-56
2022/05/03 02:50:23;;;;;;;11.77;7.97;;;9.90;91.90;;;;;;1912285;75;21031;-57
2022/05/03 02:52:58;;;;;;;10.58;7.45;;;9.90;91.60;;;;;;1911182;75;21241;-56
2022/05/03 02:55:33;;;;;;;10.18;8.33;;;9.90;91.60;;;;;;1912120;75;21095;-57
2022/05/03 02:58:17;;;;;;;11.57;7.78;;;9.90;91.60;;;;;;1917201;74;21184;-56
2022/05/03 03:04:02;;;;;;;9.05;7.47;;;9.80;91.70;;;;;;1928196;74;21227;-56
2022/05/03 03:06:37;;;;;;;9.23;7.75;;;9.80;91.70;;;;;;1928138;74;21194;-56
2022/05/03 03:09:08;;;;;;;12.75;7.72;;;9.80;91.70;;;;;;1928147;74;21229;-56
2022/05/03 03:11:40;;;;;;;7.42;6.15;;;9.80;91.70;;;;;;1928112;74;21108;-57
2022/05/03 03:14:21;;;;;;;8.90;7.05;;;9.90;91.80;;;;;;1926654;74;21678;-56
2022/05/03 03:16:59;;;;;;;8.75;7.42;;;9.90;91.60;;;;;;1928258;74;21149;-56
2022/05/03 03:20:01;;;;;;;9.65;7.72;;;9.80;91.70;;;;;;1927419;74;21430;-56
2022/05/03 03:22:33;;;;;;;8.68;7.70;;;9.80;91.60;;;;;;1928164;74;21665;-56
2022/05/03 03:25:04;;;;;;;8.65;7.67;;;9.80;91.70;;;;;;1927979;74;21733;-57
2022/05/03 03:27:34;;;;;;;9.50;6.95;;;9.80;91.90;;;;;;1928085;74;21034;-56
2022/05/03 03:30:07;;;;;;;11.18;7.95;;;9.70;91.90;;;;;;1928305;74;21244;-56
2022/05/03 03:32:45;;;;;;;9.83;7.58;;;9.70;92.00;;;;;;1927935;74;21287;-56
2022/05/03 03:35:15;;;;;;;10.43;7.53;;;9.70;91.90;;;;;;1928285;74;21174;-56
2022/05/03 03:37:47;;;;;;;10.90;7.53;;;9.70;92.00;;;;;;1928135;74;21091;-56
2022/05/03 03:40:18;;;;;;;11.08;8.50;;;9.70;91.80;;;;;;1928228;74;21241;-56
2022/05/03 03:42:49;;;;;;;12.58;8.08;;;9.70;92.00;;;;;;1928062;74;21086;-56
2022/05/03 03:45:19;;;;;;;12.25;7.87;;;9.70;92.00;;;;;;1928055;74;21180;-56
2022/05/03 03:47:49;;;;;;;10.88;8.05;;;9.70;92.00;;;;;;1928029;74;21504;-56
2022/05/03 03:50:19;;;;;;;13.22;8.40;;;9.70;92.00;;;;;;1928048;74;21276;-56
2022/05/03 03:52:49;;;;;;;11.70;8.18;;;9.70;92.00;;;;;;1928047;74;21141;-57
2022/05/03 03:55:19;;;;;;;10.10;8.60;;;9.80;91.90;;;;;;1928113;74;21155;-57
2022/05/03 03:57:48;;;;;;;12.53;10.15;;;9.80;91.90;;;;;;1928192;74;21277;-56
2022/05/03 04:00:18;;;;;;;13.05;8.03;;;9.80;92.00;;;;;;1928266;74;21242;-56
2022/05/03 04:02:48;;;;;;;14.75;10.48;;;9.80;92.00;;;;;;1928115;74;21239;-57
2022/05/03 04:05:22;;;;;;;10.15;7.87;;;9.80;91.90;;;;;;1928130;74;21160;-56
2022/05/03 04:07:52;;;;;;;12.55;10.00;;;9.80;92.00;;;;;;1928366;74;21207;-57
2022/05/03 04:10:21;;;;;;;17.40;11.75;;;9.70;91.90;;;;;;1928300;74;21151;-56
2022/05/03 04:12:51;;;;;;;15.25;10.60;;;9.80;91.90;;;;;;1928161;74;21134;-56
2022/05/03 04:15:20;;;;;;;13.03;9.03;;;9.80;92.10;;;;;;1928206;74;21155;-57
2022/05/03 04:17:49;;;;;;;13.20;10.43;;;9.70;92.10;;;;;;1928154;73;21652;-56
2022/05/03 04:20:21;;;;;;;13.40;9.45;;;9.70;92.20;;;;;;1928382;74;21147;-56
2022/05/03 04:22:51;;;;;;;10.48;7.60;;;9.70;92.30;;;;;;1928122;74;21230;-56
2022/05/03 04:25:20;;;;;;;13.13;9.23;;;9.70;92.40;;;;;;1928203;74;21224;-56
2022/05/03 04:27:49;;;;;;;17.52;11.73;;;9.70;92.30;;;;;;1928229;74;21688;-56
2022/05/03 04:30:19;;;;;;;11.97;8.28;;;9.70;92.20;;;;;;1928155;74;21240;-57
2022/05/03 04:32:48;;;;;;;10.53;8.80;;;9.70;92.40;;;;;;1928272;74;21014;-56
2022/05/03 04:35:18;;;;;;;12.28;9.30;;;9.70;92.40;;;;;;1928306;74;21106;-57
2022/05/03 04:37:47;;;;;;;11.00;8.00;;;9.70;92.30;;;;;;1928202;74;21102;-57
2022/05/03 04:40:16;;;;;;;14.98;10.35;;;9.70;92.30;;;;;;1928308;74;21121;-56
2022/05/03 04:42:46;;;;;;;14.23;10.65;;;9.70;92.10;;;;;;1928130;74;21174;-57
2022/05/03 04:45:15;;;;;;;13.03;8.70;;;9.70;92.20;;;;;;1928239;74;21309;-56
2022/05/03 04:47:45;;;;;;;12.85;9.45;;;9.80;92.30;;;;;;1928124;74;21182;-57
2022/05/03 04:50:14;;;;;;;11.50;8.15;;;9.80;92.40;;;;;;1928248;74;21285;-57
2022/05/03 04:52:43;;;;;;;13.08;8.58;;;9.80;92.30;;;;;;1928118;74;21224;-57
2022/05/03 04:55:14;;;;;;;11.88;8.55;;;9.80;92.20;;;;;;1928225;74;21344;-58
2022/05/03 04:57:44;;;;;;;12.90;9.38;;;9.80;92.40;;;;;;1928198;74;21178;-58
2022/05/03 05:00:14;;;;;;;11.25;7.90;;;9.80;92.30;;;;;;1916365;74;21319;-58
2022/05/03 05:02:43;;;;;;;11.38;9.05;;;9.90;92.40;;;;;;1911791;75;21195;-58
2022/05/03 05:05:13;;;;;;;13.15;9.73;;;9.90;92.40;;;;;;1911889;75;21190;-58
2022/05/03 05:07:42;;;;;;;11.65;7.75;;;9.90;92.30;;;;;;1911906;75;21253;-58
2022/05/03 05:10:24;;;;;;;14.05;9.68;;;9.90;92.40;;;;;;1911811;75;21195;-58
2022/05/03 05:12:54;;;;;;;14.85;9.40;;;9.90;92.30;;;;;;1911917;75;21107;-58
2022/05/03 05:15:24;;;;;;;14.68;10.28;;;9.90;92.20;;;;;;1911872;75;21345;-57
2022/05/03 05:17:58;;;;;;;16.20;9.70;;;10.00;92.20;;;;;;1911732;75;21233;-57
2022/05/03 05:20:27;;;;;;;13.48;8.98;;;10.00;92.20;;;;;;1911752;75;21095;-57
2022/05/03 05:22:57;;;;;;;11.85;9.45;;;10.10;92.30;;;;;;1911685;75;21096;-56
2022/05/03 05:25:26;;;;;;;17.32;9.48;;;10.10;92.20;;;;;;1911633;75;21155;-56
2022/05/03 05:27:56;;;;;;;13.68;9.30;;;10.00;92.20;;;;;;1911665;75;21225;-56
2022/05/03 05:30:25;;;;;;;12.45;9.45;;;10.10;92.20;;;;;;1911860;75;21091;-56
2022/05/03 05:32:54;;;;;;;13.22;9.68;;;10.10;92.20;;;;;;1911903;75;21096;-56
2022/05/03 05:35:24;;;;;;;10.98;7.95;;;10.10;92.20;;;;;;1911794;75;21107;-56
2022/05/03 05:37:53;;;;;;;12.00;9.60;;;10.10;92.20;;;;;;1911825;75;21221;-57
2022/05/03 05:40:23;;;;;;;14.18;10.30;;;10.20;92.20;;;;;;1911816;75;21179;-57
2022/05/03 05:42:52;;;;;;;11.03;8.70;;;10.20;92.20;;;;;;1911747;75;21175;-56
2022/05/03 05:45:22;;;;;;;13.95;9.73;;;10.20;92.30;;;;;;1911813;75;21039;-56
2022/05/03 05:47:51;;;;;;;12.70;8.68;;;10.30;92.00;;;;;;1911830;75;21039;-56
2022/05/03 05:50:21;;;;;;;17.07;10.82;;;10.30;92.00;;;;;;1911780;75;21172;-57
2022/05/03 05:55:38;;;;;;;12.30;9.35;;;10.40;92.00;;;;;;1911894;75;21297;-57
2022/05/03 05:58:07;;;;;;;11.00;9.25;;;10.40;92.00;;;;;;1911839;75;21157;-56
2022/05/03 06:00:37;;;;;;;14.23;10.10;;;10.50;92.00;;;;;;1900568;75;21097;-56
2022/05/03 06:03:07;;;;;;;14.10;9.35;;;10.50;91.90;;;;;;1884293;76;21093;-56
2022/05/03 06:05:37;;;;;;;11.10;8.45;;;10.50;91.90;;;;;;1884378;76;21082;-56
2022/05/03 06:08:07;;;;;;;21.85;15.85;;;10.50;91.90;;;;;;1884407;76;21129;-56
2022/05/03 06:10:36;;;;;;;12.10;8.75;;;10.50;91.80;;;;;;1884383;76;21142;-56
2022/05/03 06:13:06;;;;;;;12.78;9.08;;;10.60;91.90;;;;;;1884404;76;21093;-57
2022/05/03 06:15:36;;;;;;;13.68;8.50;;;10.60;91.90;;;;;;1884445;76;21089;-57
2022/05/03 06:18:06;;;;;;;10.55;8.73;;;10.70;91.80;;;;;;1884325;76;21231;-56
2022/05/03 06:20:36;;;;;;;10.03;8.00;;;10.70;91.80;;;;;;1884402;76;21093;-56
2022/05/03 06:23:05;;;;;;;12.37;6.62;;;10.70;91.60;;;;;;1884455;76;21025;-56
2022/05/03 06:25:36;;;;;;;6.50;5.85;;;10.70;91.50;;;;;;1884391;76;21102;-56
2022/05/03 06:28:06;;;;;;;9.25;7.37;;;10.70;91.40;;;;;;1884536;76;21524;-57
2022/05/03 06:30:35;;;;;;;8.98;6.95;;;10.70;91.50;;;;;;1884484;76;21141;-56
2022/05/03 06:33:05;;;;;;;5.83;4.90;;;10.70;91.40;;;;;;1884500;76;21093;-56
2022/05/03 06:35:35;;;;;;;8.60;6.70;;;10.70;91.40;;;;;;1884380;76;21226;-56
2022/05/03 06:38:04;;;;;;;8.10;7.15;;;10.70;91.40;;;;;;1884356;75;21005;-56
2022/05/03 06:40:33;;;;;;;7.75;6.55;;;10.70;91.50;;;;;;1884430;76;21033;-56
2022/05/03 06:43:02;;;;;;;8.53;5.58;;;10.80;91.40;;;;;;1884411;76;21009;-56
2022/05/03 06:45:32;;;;;;;8.48;6.28;;;10.80;91.40;;;;;;1884343;76;21065;-56
2022/05/03 06:48:01;;;;;;;6.87;5.92;;;10.80;91.20;;;;;;1884408;76;21095;-57
2022/05/03 06:50:31;;;;;;;7.92;6.05;;;10.80;90.90;;;;;;1884483;76;21475;-56
2022/05/03 06:53:00;;;;;;;8.53;7.45;;;10.80;91.00;;;;;;1884500;76;21029;-56
2022/05/03 06:55:29;;;;;;;7.25;5.85;;;10.80;90.90;;;;;;1884372;76;21073;-56
2022/05/03 06:57:59;;;;;;;9.30;6.95;;;10.80;91.10;;;;;;1884474;76;21033;-56
2022/05/03 07:00:28;;;;;;;9.55;7.20;;;10.80;91.10;;;;;;1884291;74;21017;-56
2022/05/03 07:02:58;;;;;;;8.68;7.22;;;10.90;91.00;;;;;;1884390;76;21534;-56
2022/05/03 07:05:27;;;;;;;11.12;7.53;;;10.90;90.90;;;;;;1884361;76;21017;-56
2022/05/03 07:07:57;;;;;;;8.35;6.90;;;11.00;91.10;;;;;;1884383;76;21099;-56
2022/05/03 07:10:26;;;;;;;7.67;4.87;;;11.10;91.00;;;;;;1884375;76;21114;-56
2022/05/03 07:12:56;;;;;;;8.20;6.35;;;11.20;90.50;;;;;;1884476;76;21021;-56
2022/05/03 07:15:26;;;;;;;7.65;5.87;;;11.30;90.50;;;;;;1884369;75;21104;-56
2022/05/03 07:23:31;;;;;;;13.75;10.32;;;11.40;89.50;;;;;;1884352;76;21085;-56
2022/05/03 07:26:00;;;;;;;9.08;6.78;;;11.40;90.00;;;;;;1884212;76;21104;-57
2022/05/03 07:28:29;;;;;;;9.88;6.28;;;11.50;89.40;;;;;;1884216;76;21005;-57
2022/05/03 07:30:59;;;;;;;11.25;7.62;;;11.50;89.30;;;;;;1884191;76;21009;-56
2022/05/03 07:33:28;;;;;;;9.15;7.40;;;11.60;89.50;;;;;;1884325;75;21033;-56
2022/05/03 07:35:58;;;;;;;7.12;6.12;;;11.60;88.60;;;;;;1884488;76;21009;-56
2022/05/03 07:38:28;;;;;;;7.40;6.50;;;11.70;88.40;;;;;;1884433;75;21029;-56
2022/05/03 07:40:58;;;;;;;7.97;6.47;;;11.70;88.40;;;;;;1884459;75;21468;-57
2022/05/03 07:43:27;;;;;;;6.35;5.05;;;11.70;88.70;;;;;;1884502;76;21472;-56
2022/05/03 07:45:56;;;;;;;6.83;6.00;;;11.80;88.50;;;;;;1884327;75;21104;-56
2022/05/03 07:48:26;;;;;;;8.25;6.60;;;11.90;87.50;;;;;;1884370;76;21107;-56
2022/05/03 07:50:56;;;;;;;11.18;6.72;;;11.90;87.00;;;;;;1884384;76;21033;-56
2022/05/03 07:53:25;;;;;;;8.73;6.65;;;11.90;87.40;;;;;;1884394;76;21119;-56
2022/05/03 07:55:54;;;;;;;10.55;7.70;;;11.90;87.70;;;;;;1884502;76;21102;-57
2022/05/03 07:58:24;;;;;;;11.43;6.37;;;12.00;88.20;;;;;;1884502;76;21126;-57
2022/05/03 08:00:53;;;;;;;10.20;5.97;;;12.00;86.60;;;;;;1884333;75;21013;-56
2022/05/03 08:03:22;;;;;;;8.48;6.35;;;12.00;86.40;;;;;;1884703;75;21021;-56
2022/05/03 08:05:52;;;;;;;9.45;6.58;;;12.00;86.10;;;;;;1884407;76;21025;-57
2022/05/03 08:08:21;;;;;;;11.65;6.72;;;11.90;86.50;;;;;;1884498;75;21041;-56
2022/05/03 08:10:51;;;;;;;7.15;6.25;;;11.90;86.40;;;;;;1884539;75;21029;-56
2022/05/03 08:13:20;;;;;;;7.95;6.58;;;11.90;86.80;;;;;;1884518;76;21006;-56
2022/05/03 08:15:50;;;;;;;7.47;6.05;;;11.80;87.30;;;;;;1884515;75;21033;-57
2022/05/03 08:18:19;;;;;;;7.55;6.33;;;11.80;87.40;;;;;;1884376;76;21025;-56
2022/05/03 08:20:49;;;;;;;7.30;6.03;;;11.80;86.60;;;;;;1884334;76;21491;-56
2022/05/03 08:23:18;;;;;;;9.45;6.42;;;11.80;87.00;;;;;;1884439;76;21099;-56
2022/05/03 08:25:48;;;;;;;13.88;6.92;;;11.80;86.60;;;;;;1884315;76;21014;-56
2022/05/03 08:28:17;;;;;;;8.33;7.00;;;11.80;87.00;;;;;;1884294;76;21041;-56
2022/05/03 08:30:46;;;;;;;8.68;5.83;;;11.80;86.80;;;;;;1884390;76;21010;-56
2022/05/03 08:33:16;;;;;;;8.05;6.42;;;11.80;87.10;;;;;;1884347;76;21037;-56
2022/05/03 08:35:45;;;;;;;10.00;7.03;;;11.90;87.20;;;;;;1884495;76;21041;-56
2022/05/03 08:43:50;;;;;;;6.90;5.42;;;12.00;86.00;;;;;;1884412;76;21017;-56
2022/05/03 08:46:21;;;;;;;8.50;6.50;;;12.00;85.50;;;;;;1884347;76;21037;-57
2022/05/03 08:48:56;;;;;;;7.25;4.60;;;12.00;85.60;;;;;;1884442;76;21541;-57
2022/05/03 08:51:29;;;;;;;8.08;6.00;;;12.10;85.40;;;;;;1884348;76;21065;-57
2022/05/03 08:53:59;;;;;;;9.38;6.78;;;12.00;86.00;;;;;;1884492;76;21420;-57
2022/05/03 08:56:30;;;;;;;10.80;6.60;;;12.10;86.30;;;;;;1884465;75;21103;-56
2022/05/03 08:58:59;;;;;;;9.98;6.40;;;12.10;86.10;;;;;;1884530;76;21475;-57
2022/05/03 09:01:29;;;;;;;8.43;5.70;;;12.10;86.10;;;;;;1851740;76;21028;-57
2022/05/03 09:03:58;;;;;;;6.78;5.85;;;12.10;85.70;;;;;;1885951;76;21215;-57
2022/05/03 09:06:47;;;;;;;6.55;4.53;;;12.10;86.00;;;;;;1886010;76;21015;-57
2022/05/03 09:09:17;;;;;;;6.42;4.72;;;12.20;84.80;;;;;;1885919;76;21120;-57
2022/05/03 09:11:51;;;;;;;7.75;5.87;;;12.20;84.60;;;;;;1885839;76;21105;-57
2022/05/03 09:14:41;;;;;;;6.95;5.78;;;12.20;85.00;;;;;;1886075;76;21113;-57
2022/05/03 09:17:11;;;;;;;10.72;6.47;;;12.20;85.00;;;;;;1886084;76;21000;-57
2022/05/03 09:19:41;;;;;;;6.40;4.60;;;12.30;84.90;;;;;;1885913;76;21035;-57
2022/05/03 09:25:05;;;;;;;11.35;6.28;;;12.30;83.80;;;;;;1886177;76;21043;-58
2022/05/03 09:27:32;;;;;;;6.45;4.12;;;12.30;85.00;;;;;;1885021;76;21651;-57
2022/05/03 09:30:06;;;;;;;7.08;5.37;;;12.40;84.40;;;;;;1885918;76;21090;-58
2022/05/03 09:32:43;;;;;;;6.15;5.12;;;12.40;84.70;;;;;;1886211;76;21051;-58
2022/05/03 09:35:36;;;;;;;6.97;5.37;;;12.40;83.90;;;;;;1885964;76;21046;-57
2022/05/03 09:38:06;;;;;;;8.43;4.67;;;12.40;84.00;;;;;;1866112;76;21029;-57
2022/05/03 09:40:42;;;;;;;7.45;5.12;;;12.40;83.70;;;;;;1928485;74;21033;-57
2022/05/03 09:43:13;;;;;;;13.85;5.55;;;12.50;84.30;;;;;;1928526;74;21090;-57
2022/05/03 09:45:42;;;;;;;7.58;5.28;;;12.40;84.20;;;;;;1928363;74;21159;-57
2022/05/03 09:48:11;;;;;;;10.82;5.25;;;12.40;83.80;;;;;;1928485;74;21031;-57
2022/05/03 09:50:43;;;;;;;9.33;5.37;;;12.40;83.50;;;;;;1928513;74;21108;-57
2022/05/03 09:53:17;;;;;;;5.58;3.92;;;12.30;83.20;;;;;;1928518;74;21101;-57
2022/05/03 09:55:48;;;;;;;11.03;6.15;;;12.40;83.40;;;;;;1885888;76;21509;-57
2022/05/03 09:58:19;;;;;;;9.25;5.65;;;12.30;83.60;;;;;;1885961;76;21126;-57
2022/05/03 10:00:49;;;;;;;6.33;5.45;;;12.30;83.30;;;;;;1885863;76;21023;-57
2022/05/03 10:03:20;;;;;;;9.03;6.03;;;12.30;82.90;;;;;;1881682;76;21302;-57
2022/05/03 10:05:50;;;;;;;6.67;5.40;;;12.30;83.40;;;;;;1878666;76;21055;-57
2022/05/03 10:08:21;;;;;;;8.55;5.22;;;12.30;83.30;;;;;;1878600;76;21019;-57
2022/05/03 10:10:56;;;;;;;7.78;5.70;;;12.30;83.70;;;;;;1878652;76;21043;-57
2022/05/03 10:13:23;;;;;;;9.10;5.35;;;12.40;83.90;;;;;;1877960;76;21160;-57
2022/05/03 10:21:39;;;;;;;8.43;5.60;;;12.40;83.50;;;;;;1918648;75;21115;-58
2022/05/03 10:24:13;;;;;;;6.17;5.00;;;12.30;83.80;;;;;;1878618;76;21125;-57
2022/05/03 10:27:06;;;;;;;8.65;5.30;;;12.30;83.40;;;;;;1878676;76;21078;-57
2022/05/03 10:29:28;;;;;;;9.18;4.85;;;12.30;84.00;;;;;;1915069;75;21025;-57
2022/05/03 10:32:03;;;;;;;6.97;5.53;;;12.30;83.90;;;;;;1878416;76;21039;-57
2022/05/03 10:34:52;;;;;;;28.12;16.25;;;12.20;83.80;;;;;;1878576;76;21098;-57
2022/05/03 10:37:36;;;;;;;6.62;5.33;;;12.10;84.20;;;;;;1918355;75;21028;-57
2022/05/03 10:40:18;;;;;;;9.13;6.45;;;12.10;84.70;;;;;;1878571;76;21027;-57
2022/05/03 10:42:50;;;;;;;6.78;5.70;;;12.10;84.80;;;;;;1917844;75;21543;-57
2022/05/03 10:45:22;;;;;;;10.60;6.65;;;12.10;84.60;;;;;;1915355;75;21496;-57
2022/05/03 10:47:53;;;;;;;8.13;4.65;;;12.10;84.60;;;;;;1878361;76;21134;-58
2022/05/03 10:50:31;;;;;;;9.08;6.03;;;12.10;84.50;;;;;;1877756;76;21184;-57
2022/05/03 10:53:05;;;;;;;9.50;7.05;;;12.10;84.60;;;;;;1918582;75;21146;-57
2022/05/03 10:55:41;;;;;;;10.43;7.58;;;12.20;84.80;;;;;;1878571;76;21142;-58
2022/05/03 10:58:30;;;;;;;10.28;6.62;;;12.20;84.40;;;;;;1878593;76;21048;-57
2022/05/03 11:01:05;;;;;;;12.05;5.83;;;12.20;84.20;;;;;;1878553;76;21086;-57
2022/05/03 11:03:43;;;;;;;8.55;6.40;;;12.30;84.10;;;;;;1922864;74;21124;-58
2022/05/03 11:06:28;;;;;;;6.90;5.33;;;12.30;84.10;;;;;;1923399;74;21084;-57
2022/05/03 11:11:44;;;;;;;8.00;5.28;;;12.40;83.50;;;;;;1928108;74;21026;-57
2022/05/03 11:14:19;;;;;;;9.00;5.85;;;12.40;83.40;;;;;;1928170;74;21116;-57
2022/05/03 11:17:05;;;;;;;8.95;5.47;;;12.40;83.20;;;;;;1928276;74;21027;-57
2022/05/03 11:19:40;;;;;;;7.65;6.00;;;12.40;83.10;;;;;;1928142;74;21194;-56
2022/05/03 11:22:14;;;;;;;10.20;5.28;;;12.40;83.30;;;;;;1928207;74;21006;-57
2022/05/03 11:24:45;;;;;;;12.20;6.42;;;12.40;83.00;;;;;;1928404;74;21073;-57
2022/05/03 11:27:16;;;;;;;10.68;6.03;;;12.40;82.70;;;;;;1928005;74;21112;-57
2022/05/03 11:29:47;;;;;;;6.20;4.35;;;12.50;83.20;;;;;;1927995;74;21015;-57
2022/05/03 11:32:19;;;;;;;19.50;6.50;;;12.50;82.30;;;;;;1928057;74;21030;-57
2022/05/03 11:34:49;;;;;;;10.05;5.83;;;12.60;82.70;;;;;;1927806;74;21129;-57
2022/05/03 11:37:18;;;;;;;8.75;5.05;;;12.70;82.40;;;;;;1928007;73;21035;-57
2022/05/03 11:39:47;;;;;;;6.42;5.17;;;12.70;82.50;;;;;;1928151;74;21426;-57
2022/05/03 11:42:17;;;;;;;7.55;4.45;;;12.80;81.80;;;;;;1927918;74;21026;-57
2022/05/03 11:44:46;;;;;;;5.28;4.42;;;12.80;80.90;;;;;;1927952;74;21112;-57
2022/05/03 11:47:16;;;;;;;7.30;5.08;;;12.80;81.70;;;;;;1927908;73;21003;-57
2022/05/03 11:49:45;;;;;;;6.40;4.47;;;12.80;81.80;;;;;;1927945;74;21099;-57
2022/05/03 11:55:58;;;;;;;4.55;4.05;;;12.80;80.60;;;;;;1927973;74;21050;-57
2022/05/03 11:57:45;;;;;;;5.25;3.90;;;12.80;81.30;;;;;;1923352;74;21066;-57
2022/05/03 12:00:15;;;;;;;7.28;4.70;;;12.70;80.40;;;;;;1928039;74;21031;-56
2022/05/03 12:02:45;;;;;;;3.85;3.37;;;12.70;80.90;;;;;;1928053;74;21037;-57
2022/05/03 12:05:20;;;;;;;3.72;3.10;;;12.80;80.80;;;;;;1913768;74;21125;-57
2022/05/03 12:07:57;;;;;;;4.50;3.40;;;12.80;79.50;;;;;;1911873;75;21173;-58
2022/05/03 12:10:38;;;;;;;4.37;3.75;;;12.80;80.00;;;;;;1911793;75;21130;-57
2022/05/03 12:13:29;;;;;;;7.12;3.55;;;12.80;80.30;;;;;;1911702;75;21077;-57
2022/05/03 12:16:06;;;;;;;6.28;3.58;;;12.90;79.90;;;;;;1911847;75;21007;-57
2022/05/03 12:18:40;;;;;;;5.30;4.12;;;12.90;80.50;;;;;;1911699;75;21058;-58
2022/05/03 12:21:11;;;;;;;8.20;3.95;;;12.90;80.50;;;;;;1911726;75;21055;-57
2022/05/03 12:23:46;;;;;;;4.95;3.15;;;12.90;80.50;;;;;;1911866;75;21085;-57
2022/05/03 12:26:25;;;;;;;6.17;3.30;;;13.00;80.70;;;;;;1912135;75;21219;-57
2022/05/03 12:28:56;;;;;;;3.90;3.47;;;12.90;79.70;;;;;;1911987;75;21090;-57
2022/05/03 12:31:35;;;;;;;4.53;3.75;;;12.90;80.20;;;;;;1911962;75;21027;-58
2022/05/03 12:34:03;;;;;;;4.72;4.05;;;12.90;80.60;;;;;;1911683;75;21114;-58
2022/05/03 12:36:41;;;;;;;4.70;3.52;;;12.90;80.50;;;;;;1911903;75;21054;-58
2022/05/03 12:39:15;;;;;;;5.85;4.10;;;12.90;80.50;;;;;;1912071;75;21104;-57
2022/05/03 12:42:03;;;;;;;5.95;3.47;;;12.90;80.40;;;;;;1911737;75;21141;-57
2022/05/03 12:44:30;;;;;;;5.85;3.92;;;12.90;80.40;;;;;;1910947;75;21055;-58
2022/05/03 12:47:07;;;;;;;7.28;4.72;;;12.90;80.40;;;;;;1911772;75;21003;-57
2022/05/03 12:49:37;;;;;;;7.05;5.42;;;12.90;80.90;;;;;;1911865;75;21203;-58
2022/05/03 12:52:07;;;;;;;6.53;4.05;;;12.90;80.80;;;;;;1911894;75;21079;-57
2022/05/03 12:54:41;;;;;;;5.03;4.40;;;12.80;80.20;;;;;;1911782;75;21039;-58
2022/05/03 12:59:58;;;;;;;8.50;5.70;;;12.80;80.30;;;;;;1911895;75;21067;-58
2022/05/03 13:02:28;;;;;;;6.15;4.72;;;12.80;80.70;;;;;;1911978;75;21132;-58
2022/05/03 13:04:57;;;;;;;6.10;4.15;;;12.80;80.90;;;;;;1911986;75;21043;-58
2022/05/03 13:07:27;;;;;;;7.05;3.98;;;12.90;80.80;;;;;;1911893;75;21121;-57
2022/05/03 13:09:56;;;;;;;4.78;3.90;;;12.90;80.40;;;;;;1911771;75;21031;-57
2022/05/03 13:12:25;;;;;;;4.62;3.85;;;12.90;80.40;;;;;;1911753;75;21031;-58
2022/05/03 13:14:55;;;;;;;6.53;4.55;;;12.90;79.80;;;;;;1911896;75;21054;-57
2022/05/03 13:17:25;;;;;;;5.40;4.15;;;12.90;80.00;;;;;;1911810;75;21035;-58
2022/05/03 13:19:54;;;;;;;6.10;3.58;;;12.90;80.20;;;;;;1911845;75;21082;-58
2022/05/03 13:22:23;;;;;;;4.60;3.70;;;12.90;79.80;;;;;;1911695;75;21066;-57
2022/05/03 13:24:53;;;;;;;6.78;4.25;;;12.90;79.50;;;;;;1911959;75;21031;-57
2022/05/03 13:27:22;;;;;;;5.62;4.35;;;12.90;80.00;;;;;;1912039;75;21055;-57
2022/05/03 13:29:52;;;;;;;5.30;3.17;;;12.90;80.40;;;;;;1912000;75;21004;-58
2022/05/03 13:32:21;;;;;;;4.45;3.77;;;12.90;80.20;;;;;;1911913;75;21035;-57
2022/05/03 13:34:51;;;;;;;5.10;4.70;;;13.00;79.90;;;;;;1911987;75;21117;-57
2022/05/03 13:42:55;;;;;;;3.92;3.55;;;13.00;79.60;;;;;;1912052;75;21047;-57
2022/05/03 13:45:25;;;;;;;4.85;3.08;;;12.90;79.50;;;;;;1911950;75;21015;-57
2022/05/03 13:47:55;;;;;;;4.58;3.12;;;12.90;79.40;;;;;;1912010;75;21074;-58
2022/05/03 13:50:24;;;;;;;6.42;4.40;;;12.80;79.40;;;;;;1912000;75;21050;-56
2022/05/03 13:52:53;;;;;;;6.25;4.40;;;12.80;80.10;;;;;;1911927;75;21405;-57
2022/05/03 13:55:23;;;;;;;5.50;4.72;;;12.80;80.50;;;;;;1911989;75;21109;-57